TAF SKBG
SKBG 081030Z 0812/0912 VRB02KT 9999 FEW015 BECMG 0815/0817 33008KT SCT015 BECMG 0901/0903 VRB02KT SCT010 TX28/0818Z TN18/0910Z=
METAR SKBG
SKBG 080000Z 31003KT 9999 FEW015 21/21 Q1013 RMK A2993=
SKBG 062300Z 32006KT 9999 SCT015 22/22 Q1014 RMK A2994=
SKBG 052300Z 32004KT 9999 FEW015 SCT270 22/22 Q1013 RMK A2992=
SKBG 052200Z 33005KT 9999 FEW017 SCT080 24/21 Q1013 RMK A2991=
WC SKBG
WS SKBG
WV SKBG